createdAt,value
2023-01-19T00:04:52.614Z,96936.99
2023-01-19T00:09:56.817Z,96946.23
2023-01-19T00:15:00.995Z,96952.21
2023-01-19T00:20:05.945Z,96951.52
2023-01-19T00:25:11.034Z,96953.52
2023-01-19T00:30:15.653Z,96954.52
2023-01-19T00:35:20.325Z,96964.68
2023-01-19T00:40:25.035Z,96966.85
2023-01-19T00:45:29.406Z,96963.75
2023-01-19T00:50:33.815Z,96958.70
2023-01-19T00:55:38.065Z,96954.90
2023-01-19T01:00:42.449Z,96950.35
2023-01-19T01:05:46.731Z,96946.70
2023-01-19T01:10:51.344Z,96944.05
2023-01-19T01:15:56.393Z,96937.39
2023-01-19T01:21:05.188Z,96931.65
2023-01-19T01:26:09.655Z,96941.73
2023-01-19T01:31:14.348Z,96943.27
2023-01-19T01:36:19.343Z,96938.39
2023-01-19T01:41:25.470Z,96953.59
2023-01-19T01:46:31.831Z,96961.27
2023-01-19T01:51:38.778Z,96961.27
2023-01-19T01:56:44.536Z,96949.40
2023-01-19T02:02:07.015Z,96941.88
2023-01-19T02:07:32.984Z,96956.70
2023-01-19T02:12:55.854Z,96959.71
2023-01-19T02:18:00.496Z,96962.04
2023-01-19T02:23:07.604Z,96967.85
2023-01-19T02:28:12.397Z,96972.29
2023-01-19T02:33:16.352Z,96971.36
2023-01-19T02:38:21.783Z,96975.23
2023-01-19T02:43:27.436Z,96976.55
2023-01-19T02:48:31.983Z,96972.35
2023-01-19T02:53:55.207Z,96970.42
2023-01-19T02:59:02.446Z,96979.26
2023-01-19T03:04:12.355Z,96978.17
2023-01-19T03:09:21.961Z,96977.71
2023-01-19T03:14:29.833Z,96981.98
2023-01-19T03:19:35.563Z,96980.87
2023-01-19T03:24:43.025Z,96978.23
2023-01-19T03:29:50.563Z,96977.02
2023-01-19T03:34:55.163Z,96976.92
2023-01-19T03:39:59.204Z,96975.61
2023-01-19T03:45:03.906Z,96978.33
2023-01-19T03:50:12.372Z,96979.41
2023-01-19T03:55:16.993Z,96993.61
2023-01-19T04:00:22.085Z,96991.66
2023-01-19T04:05:26.374Z,96998.02
2023-01-19T04:10:30.633Z,97000.12
2023-01-19T04:15:34.812Z,97006.94
2023-01-19T04:20:39.018Z,97009.25
2023-01-19T04:25:43.144Z,97008.41
2023-01-19T04:30:50.006Z,97020.80
2023-01-19T04:35:55.782Z,97033.45
2023-01-19T04:41:00.130Z,97030.81
2023-01-19T04:46:04.500Z,97033.45
2023-01-19T04:51:08.796Z,97035.38
2023-01-19T04:56:13.092Z,97036.00
2023-01-19T05:01:17.515Z,97055.02
2023-01-19T05:06:21.473Z,97055.55
2023-01-19T05:11:25.800Z,97070.20
2023-01-19T05:16:29.997Z,97069.03
2023-01-19T05:21:34.213Z,97073.52
2023-01-19T05:26:38.384Z,97076.02
2023-01-19T05:31:43.089Z,97068.10
2023-01-19T05:36:47.443Z,97060.20
2023-01-19T05:41:51.902Z,97055.54
2023-01-19T05:46:56.277Z,97054.07
2023-01-19T05:52:01.073Z,97041.03
2023-01-19T05:57:05.124Z,97040.34
2023-01-19T06:02:09.409Z,97042.59
2023-01-19T06:07:13.898Z,97040.58
2023-01-19T06:12:18.185Z,97038.86
2023-01-19T06:17:22.848Z,97031.17
2023-01-19T06:22:27.293Z,97037.77
2023-01-19T06:27:32.020Z,97046.77
2023-01-19T06:32:36.407Z,97066.92
2023-01-19T06:37:40.682Z,97078.47
2023-01-19T06:42:44.744Z,97091.04
2023-01-19T06:47:49.113Z,97084.54
2023-01-19T06:59:17.098Z,97120.30
2023-01-19T07:04:24.563Z,97143.70
2023-01-19T07:09:31.836Z,97158.25
2023-01-19T07:14:39.173Z,97170.51
2023-01-19T07:19:46.793Z,97174.38
2023-01-19T07:24:54.082Z,97175.92
2023-01-19T07:30:01.590Z,97180.20
2023-01-19T07:35:09.025Z,97183.30
2023-01-19T07:40:16.544Z,97182.13
2023-01-19T07:45:23.745Z,97179.41
2023-01-19T07:50:30.613Z,97177.33
2023-01-19T07:55:37.903Z,97170.65
2023-01-19T08:00:45.142Z,97165.99
2023-01-19T08:05:54.396Z,97178.41
2023-01-19T08:11:02.184Z,97187.54
2023-01-19T08:16:10.644Z,97199.58
2023-01-19T08:21:18.334Z,97202.36
2023-01-19T08:26:29.813Z,97211.82
2023-01-19T08:31:38.183Z,97214.38
2023-01-19T08:36:45.854Z,97220.59
2023-01-19T08:41:53.727Z,97208.10
2023-01-19T08:47:01.270Z,97209.48
2023-01-19T08:52:08.664Z,97201.04
2023-01-19T08:57:16.683Z,97207.64
2023-01-19T09:02:24.000Z,97203.44
2023-01-19T09:07:33.852Z,97217.30
2023-01-19T09:12:43.802Z,97236.92
2023-01-19T09:17:50.956Z,97241.27
2023-01-19T09:22:59.175Z,97253.76
2023-01-19T09:28:06.503Z,97260.19
2023-01-19T09:33:15.110Z,97267.55
2023-01-19T09:38:22.826Z,97267.70
2023-01-19T09:43:44.658Z,97260.96
2023-01-19T09:48:53.933Z,97247.55
2023-01-19T09:54:05.953Z,97241.64
2023-01-19T09:59:19.863Z,97244.35
2023-01-19T10:04:30.995Z,97244.67
2023-01-19T10:09:42.504Z,97225.98
2023-01-19T10:14:54.144Z,97222.48
2023-01-19T10:20:04.067Z,97222.73
2023-01-19T10:25:17.262Z,97216.52
2023-01-19T10:30:25.733Z,97208.61
2023-01-19T10:35:33.100Z,97202.41
2023-01-19T10:40:44.891Z,97202.16
2023-01-19T10:45:53.021Z,97201.16
2023-01-19T10:51:05.400Z,97207.45
2023-01-19T10:56:14.085Z,97208.45
2023-01-19T11:01:22.149Z,97206.27
2023-01-19T11:06:30.374Z,97199.91
2023-01-19T11:11:43.493Z,97198.22
2023-01-19T11:16:52.167Z,97194.71
2023-01-19T11:22:12.785Z,97194.95
2023-01-19T11:27:21.480Z,97181.63
2023-01-19T11:32:29.491Z,97179.29
2023-01-19T11:37:36.815Z,97176.58
2023-01-19T11:42:45.033Z,97181.38
2023-01-19T11:47:52.909Z,97182.77
2023-01-19T11:53:02.575Z,97185.80
2023-01-19T11:58:14.908Z,97185.26
2023-01-19T12:03:24.417Z,97190.98
2023-01-19T12:08:32.739Z,97186.81
2023-01-19T12:13:42.158Z,97177.10
2023-01-19T12:18:50.088Z,97179.90
2023-01-19T12:24:07.407Z,97186.88
2023-01-19T12:29:15.964Z,97185.64
2023-01-19T12:34:42.085Z,97182.30
2023-01-19T12:39:51.421Z,97183.00
2023-01-19T12:45:06.994Z,97184.17
2023-01-19T12:50:19.605Z,97184.23
2023-01-19T12:55:31.586Z,97186.25
2023-01-19T13:00:40.513Z,97192.83
2023-01-19T13:05:55.043Z,97190.11
2023-01-19T13:11:27.288Z,97190.27
2023-01-19T13:17:01.182Z,97196.24
2023-01-19T13:22:30.556Z,97195.86
2023-01-19T13:27:39.172Z,97200.20
2023-01-19T13:32:46.303Z,97212.52
2023-01-19T13:37:54.233Z,97220.50
2023-01-19T13:43:01.564Z,97231.42
2023-01-19T13:48:09.704Z,97236.21
2023-01-19T13:53:21.047Z,97237.77
2023-01-19T13:58:29.052Z,97238.70
2023-01-19T14:03:36.454Z,97242.02
2023-01-19T14:08:43.803Z,97246.98
2023-01-19T14:13:51.023Z,97257.06
2023-01-19T14:19:05.176Z,97258.70
2023-01-19T14:24:18.690Z,97262.02
2023-01-19T14:29:27.098Z,97260.15
2023-01-19T14:34:35.404Z,97264.74
2023-01-19T14:39:45.755Z,97263.25
2023-01-19T14:44:53.539Z,97270.85
2023-01-19T14:50:02.421Z,97275.58
2023-01-19T14:55:18.754Z,97280.91
2023-01-19T15:00:27.564Z,97276.44
2023-01-19T15:05:35.212Z,97276.58
2023-01-19T15:10:42.758Z,97279.35
2023-01-19T15:15:50.829Z,97279.27
2023-01-19T15:21:03.568Z,97283.30
2023-01-19T15:26:15.829Z,97281.98
2023-01-19T15:31:23.940Z,97280.05
2023-01-19T15:36:31.043Z,97280.34
2023-01-19T15:41:41.603Z,97284.98
2023-01-19T15:46:49.045Z,97287.85
2023-01-19T15:51:56.244Z,97291.02
2023-01-19T15:57:03.161Z,97292.81
2023-01-19T16:02:11.362Z,97294.59
2023-01-19T16:07:18.544Z,97297.69
2023-01-19T16:12:25.652Z,97305.67
2023-01-19T16:17:32.973Z,97305.27
2023-01-19T16:22:40.325Z,97310.00
2023-01-19T16:27:47.416Z,97320.85
2023-01-19T16:32:54.524Z,97325.89
2023-01-19T16:38:01.561Z,97328.51
2023-01-19T16:43:08.621Z,97331.30
2023-01-19T16:48:15.754Z,97335.71
2023-01-19T16:53:22.845Z,97340.05
2023-01-19T16:58:29.711Z,97338.13
2023-01-19T17:03:36.985Z,97334.23
2023-01-19T17:08:44.124Z,97339.89
2023-01-19T17:13:51.780Z,97339.36
2023-01-19T17:19:00.183Z,97338.65
2023-01-19T17:24:07.745Z,97336.02
2023-01-19T17:29:15.243Z,97337.34
2023-01-19T17:34:22.451Z,97339.27
2023-01-19T17:39:29.526Z,97348.48
2023-01-19T17:44:36.547Z,97350.19
2023-01-19T17:49:43.833Z,97351.48
2023-01-19T17:54:50.785Z,97345.91
2023-01-19T17:59:58.288Z,97348.63
2023-01-19T18:05:13.093Z,97355.28
2023-01-19T18:10:20.451Z,97359.71
2023-01-19T18:15:27.770Z,97357.21
2023-01-19T18:20:38.073Z,97362.80
2023-01-19T18:25:45.584Z,97365.59
2023-01-19T18:30:53.196Z,97370.25
2023-01-19T18:36:00.443Z,97378.06
2023-01-19T18:41:08.504Z,97374.24
2023-01-19T18:46:16.429Z,97367.27
2023-01-19T18:51:23.408Z,97380.23
2023-01-19T18:56:30.723Z,97384.57
2023-01-19T19:01:38.035Z,97390.06
2023-01-19T19:06:45.459Z,97385.55
2023-01-19T19:11:52.943Z,97396.56
2023-01-19T19:17:00.349Z,97408.94
2023-01-19T19:22:07.563Z,97415.84
2023-01-19T19:27:14.763Z,97427.46
2023-01-19T19:32:22.068Z,97428.31
2023-01-19T19:37:29.864Z,97430.87
2023-01-19T19:42:37.784Z,97439.55
2023-01-19T19:47:45.103Z,97454.44
2023-01-19T19:52:52.453Z,97464.11
2023-01-19T19:57:59.443Z,97467.91
2023-01-19T20:03:07.434Z,97469.68
2023-01-19T20:08:14.829Z,97468.91
2023-01-19T20:13:22.544Z,97481.05
2023-01-19T20:18:29.833Z,97482.23
2023-01-19T20:23:36.933Z,97485.16
2023-01-19T20:28:44.098Z,97494.61
2023-01-19T20:33:52.061Z,97498.19
2023-01-19T20:38:59.691Z,97509.95
2023-01-19T20:44:06.863Z,97514.67
2023-01-19T20:49:14.155Z,97518.39
2023-01-19T20:54:22.433Z,97535.05
2023-01-19T20:59:29.623Z,97545.20
2023-01-19T21:04:36.684Z,97553.58
2023-01-19T21:09:44.043Z,97551.95
2023-01-19T21:14:51.130Z,97552.41
2023-01-19T21:19:58.664Z,97547.84
2023-01-19T21:25:05.982Z,97551.39
2023-01-19T21:30:13.843Z,97552.79
2023-01-19T21:35:20.805Z,97562.99
2023-01-19T21:40:28.144Z,97567.27
2023-01-19T21:45:35.586Z,97567.80
2023-01-19T21:50:42.823Z,97572.83
2023-01-19T21:55:49.844Z,97581.96
2023-01-19T22:01:02.536Z,97587.08
2023-01-19T22:06:11.118Z,97600.41
2023-01-19T22:11:20.424Z,97607.39
2023-01-19T22:16:28.162Z,97604.44
2023-01-19T22:21:36.111Z,97600.92
2023-01-19T22:26:43.371Z,97605.35
2023-01-19T22:31:52.256Z,97609.99
2023-01-19T22:36:59.686Z,97615.89
2023-01-19T22:42:07.083Z,97616.04
2023-01-19T22:47:14.281Z,97617.98
2023-01-19T22:52:21.623Z,97620.67
2023-01-19T22:57:29.046Z,97622.46
2023-01-19T23:02:36.485Z,97625.33
2023-01-19T23:07:43.842Z,97636.17
2023-01-19T23:12:50.997Z,97634.52
2023-01-19T23:17:58.533Z,97633.83
2023-01-19T23:23:05.912Z,97631.02
2023-01-19T23:28:13.145Z,97624.83
2023-01-19T23:33:20.462Z,97635.75
2023-01-19T23:38:27.752Z,97643.50
2023-01-19T23:43:35.022Z,97648.68
2023-01-19T23:48:46.075Z,97652.87
2023-01-19T23:53:53.423Z,97664.42
2023-01-19T23:59:01.862Z,97674.02
